Time;durP1;ratioP1;P1;durP2;ratioP2;P2;SDS_P1;SDS_P2;PMS_P1;PMS_P2;Temp;Humidity;BMP_temperature;BMP_pressure;BME280_temperature;BME280_humidity;BME280_pressure;Samples;Min_cycle;Max_cycle;Signal;HPM_P1;HPM_P2
2023/11/06 00:01:08;;;;;;;10.25;2.40;;;9.20;99.90;;;;;;4992982;28;20081;-72
2023/11/06 00:03:33;;;;;;;10.32;2.58;;;9.20;99.90;;;;;;5010244;28;20105;-72
2023/11/06 00:05:59;;;;;;;8.27;2.50;;;9.20;99.90;;;;;;5011313;28;20591;-72
2023/11/06 00:08:25;;;;;;;6.60;2.60;;;9.20;99.90;;;;;;5011442;28;20521;-72
2023/11/06 00:10:52;;;;;;;8.30;2.97;;;9.10;99.90;;;;;;4993717;28;20056;-72
2023/11/06 00:13:18;;;;;;;6.57;3.05;;;9.10;99.90;;;;;;5007458;28;20045;-72
2023/11/06 00:15:44;;;;;;;7.03;3.00;;;9.10;99.90;;;;;;4990802;28;20046;-72
2023/11/06 00:18:10;;;;;;;8.40;3.58;;;9.10;99.90;;;;;;4991992;28;20049;-72
2023/11/06 00:20:36;;;;;;;9.10;3.70;;;9.10;99.90;;;;;;5011303;28;20045;-72
2023/11/06 00:23:01;;;;;;;6.32;3.70;;;9.10;99.90;;;;;;5010652;28;20045;-72
2023/11/06 00:25:27;;;;;;;8.20;3.80;;;9.10;99.90;;;;;;5010141;28;20034;-72
2023/11/06 00:27:53;;;;;;;7.95;3.60;;;9.20;99.90;;;;;;5010280;28;20033;-72
2023/11/06 00:30:19;;;;;;;9.32;4.20;;;9.20;99.90;;;;;;4993260;28;20446;-71
2023/11/06 00:32:45;;;;;;;8.10;3.80;;;9.20;99.90;;;;;;5007399;28;20035;-72
2023/11/06 00:35:12;;;;;;;9.45;4.13;;;9.20;99.90;;;;;;4993637;28;20038;-71
2023/11/06 00:37:38;;;;;;;9.23;3.60;;;9.20;99.90;;;;;;5010374;28;20042;-72
2023/11/06 00:40:04;;;;;;;7.65;3.90;;;9.20;99.90;;;;;;5012025;28;20399;-72
2023/11/06 00:42:29;;;;;;;15.02;4.53;;;9.30;99.90;;;;;;4997270;28;20462;-72
2023/11/06 00:44:55;;;;;;;9.02;3.90;;;9.30;99.90;;;;;;5013620;28;20034;-72
2023/11/06 00:47:20;;;;;;;7.70;3.65;;;9.30;99.90;;;;;;5014375;28;20038;-72
2023/11/06 00:49:46;;;;;;;9.23;3.75;;;9.30;99.90;;;;;;4997083;28;20566;-72
2023/11/06 00:52:11;;;;;;;10.35;4.00;;;9.30;99.90;;;;;;4991501;28;20491;-72
2023/11/06 00:54:37;;;;;;;9.40;3.80;;;9.40;99.90;;;;;;4990786;28;20124;-72
2023/11/06 00:57:03;;;;;;;9.05;3.80;;;9.30;99.90;;;;;;4996538;28;20045;-72
2023/11/06 00:59:28;;;;;;;10.98;4.22;;;9.40;99.90;;;;;;4996784;28;20398;-72
2023/11/06 01:01:55;;;;;;;7.47;3.88;;;9.40;99.90;;;;;;5011729;28;20038;-72
2023/11/06 01:04:20;;;;;;;13.88;4.07;;;9.40;99.90;;;;;;5013379;28;20084;-72
2023/11/06 01:06:46;;;;;;;7.50;3.63;;;9.40;99.90;;;;;;4996417;28;20041;-72
2023/11/06 01:09:16;;;;;;;11.20;4.20;;;9.40;99.90;;;;;;4995998;28;20057;-71
2023/11/06 01:11:47;;;;;;;8.68;4.10;;;9.40;99.90;;;;;;4996594;28;20490;-72
2023/11/06 01:14:12;;;;;;;14.68;4.63;;;9.30;99.90;;;;;;4995148;28;20056;-72
2023/11/06 01:16:38;;;;;;;10.25;4.32;;;9.30;99.90;;;;;;4979905;28;20046;-72
2023/11/06 01:19:04;;;;;;;9.82;4.45;;;9.40;99.90;;;;;;5013495;28;20042;-71
2023/11/06 01:21:31;;;;;;;10.00;4.60;;;9.40;99.90;;;;;;5012925;28;20045;-72
2023/11/06 01:23:57;;;;;;;12.05;4.80;;;9.40;99.90;;;;;;4993896;28;20376;-72
2023/11/06 01:26:25;;;;;;;15.88;5.38;;;9.40;99.90;;;;;;4995823;28;20036;-72
2023/11/06 01:28:51;;;;;;;16.52;5.45;;;9.40;99.90;;;;;;5013706;28;20402;-72
2023/11/06 01:31:17;;;;;;;8.98;5.30;;;9.40;99.90;;;;;;5010254;28;20034;-72
2023/11/06 01:33:43;;;;;;;17.23;6.20;;;9.40;99.90;;;;;;4991595;28;20560;-72
2023/11/06 01:36:12;;;;;;;12.07;5.80;;;9.40;99.90;;;;;;4995916;28;20489;-72
2023/11/06 01:38:37;;;;;;;13.63;6.30;;;9.50;99.90;;;;;;5010108;28;20112;-72
2023/11/06 01:41:04;;;;;;;18.95;6.30;;;9.50;99.90;;;;;;4995669;28;20530;-72
2023/11/06 01:43:29;;;;;;;16.75;7.10;;;9.50;99.90;;;;;;5010658;28;20030;-72
2023/11/06 01:45:55;;;;;;;13.50;6.93;;;9.50;99.90;;;;;;5013231;28;20545;-72
2023/11/06 01:48:24;;;;;;;15.55;7.50;;;9.50;99.90;;;;;;5011054;28;20042;-72
2023/11/06 01:50:51;;;;;;;13.90;7.65;;;9.50;99.90;;;;;;5000868;28;20048;-73
2023/11/06 01:53:17;;;;;;;21.15;7.93;;;9.50;99.90;;;;;;4995318;28;20041;-72
2023/11/06 01:55:45;;;;;;;18.05;8.48;;;9.50;99.90;;;;;;5012929;28;20521;-72
2023/11/06 01:58:12;;;;;;;14.43;7.40;;;9.40;99.90;;;;;;5013526;28;20443;-72
2023/11/06 02:00:39;;;;;;;16.05;8.77;;;9.40;99.90;;;;;;5007913;28;20045;-72
2023/11/06 02:03:07;;;;;;;19.05;8.98;;;9.50;99.90;;;;;;4987740;28;20038;-72
2023/11/06 02:05:33;;;;;;;17.33;8.50;;;9.50;99.90;;;;;;4994745;28;20050;-73
2023/11/06 02:08:01;;;;;;;18.23;9.60;;;9.50;99.90;;;;;;4995744;28;20406;-72
2023/11/06 02:10:27;;;;;;;16.05;8.88;;;9.50;99.90;;;;;;5013286;28;20042;-72
2023/11/06 02:12:52;;;;;;;17.60;9.07;;;9.50;99.90;;;;;;4995784;28;20120;-72
2023/11/06 02:15:20;;;;;;;20.73;9.40;;;9.50;99.90;;;;;;4971463;28;20125;-72
2023/11/06 02:17:46;;;;;;;18.50;8.45;;;9.40;99.90;;;;;;4988752;28;20070;-72
2023/11/06 02:20:13;;;;;;;16.08;7.65;;;9.40;99.90;;;;;;5008965;28;20050;-72
2023/11/06 02:22:41;;;;;;;16.85;7.28;;;9.40;99.90;;;;;;5006854;28;20042;-72
2023/11/06 02:25:07;;;;;;;17.77;7.35;;;9.50;99.90;;;;;;4995189;28;20038;-72
2023/11/06 02:27:33;;;;;;;15.30;6.72;;;9.40;99.90;;;;;;4976624;28;20049;-72
2023/11/06 02:29:59;;;;;;;11.55;6.85;;;9.40;99.90;;;;;;5009948;28;20034;-72
2023/11/06 02:32:24;;;;;;;14.68;6.72;;;9.40;99.90;;;;;;5011378;28;20038;-72
2023/11/06 02:34:50;;;;;;;13.32;6.30;;;9.40;99.90;;;;;;4989449;28;20611;-72
2023/11/06 02:37:17;;;;;;;11.93;6.63;;;9.40;99.90;;;;;;4998419;28;20395;-72
2023/11/06 02:39:43;;;;;;;15.57;7.78;;;9.40;99.90;;;;;;4994572;28;20037;-72
2023/11/06 02:42:09;;;;;;;16.77;6.82;;;9.40;99.90;;;;;;5011982;28;20034;-72
2023/11/06 02:44:35;;;;;;;15.40;7.07;;;9.30;99.90;;;;;;5007668;28;20147;-72
2023/11/06 02:47:01;;;;;;;13.75;6.70;;;9.30;99.90;;;;;;4995468;28;20502;-72
2023/11/06 02:49:27;;;;;;;18.05;7.38;;;9.30;99.90;;;;;;5009861;28;20030;-72
2023/11/06 02:51:53;;;;;;;16.98;7.15;;;9.30;99.90;;;;;;4994728;28;20038;-71
2023/11/06 02:54:23;;;;;;;11.88;7.15;;;9.30;99.90;;;;;;4993917;28;20042;-72
2023/11/06 02:56:49;;;;;;;16.13;7.15;;;9.40;99.90;;;;;;5005047;28;20135;-71
2023/11/06 02:59:15;;;;;;;14.63;7.68;;;9.40;99.90;;;;;;5007736;28;20044;-71
2023/11/06 03:01:41;;;;;;;17.20;7.50;;;9.30;99.90;;;;;;4994288;28;20045;-71
2023/11/06 03:04:07;;;;;;;15.88;7.90;;;9.40;99.90;;;;;;5011068;28;20038;-72
2023/11/06 03:06:32;;;;;;;14.60;7.50;;;9.40;99.90;;;;;;4994131;28;20554;-72
2023/11/06 03:08:58;;;;;;;12.23;7.40;;;9.40;99.90;;;;;;5010871;28;20036;-72
2023/11/06 03:11:24;;;;;;;12.00;7.32;;;9.40;99.90;;;;;;5012040;28;20383;-72
2023/11/06 03:13:50;;;;;;;17.20;7.63;;;9.40;99.90;;;;;;4987987;28;20038;-72
2023/11/06 03:16:18;;;;;;;12.63;7.38;;;9.30;99.90;;;;;;4994328;28;20037;-72
2023/11/06 03:18:44;;;;;;;14.73;7.25;;;9.30;99.90;;;;;;4993633;28;20049;-71
2023/11/06 03:21:10;;;;;;;18.75;8.00;;;9.30;99.90;;;;;;4994154;28;20050;-71
2023/11/06 03:23:37;;;;;;;17.10;7.25;;;9.30;99.90;;;;;;5011509;28;20061;-71
2023/11/06 03:26:05;;;;;;;14.02;7.70;;;9.30;99.90;;;;;;4976834;28;20042;-71
2023/11/06 03:28:30;;;;;;;14.57;7.15;;;9.30;99.90;;;;;;5011141;28;20038;-71
2023/11/06 03:30:56;;;;;;;15.80;7.30;;;9.30;99.90;;;;;;4994289;28;20095;-72
2023/11/06 03:33:22;;;;;;;12.60;6.88;;;9.30;99.90;;;;;;5011565;28;20034;-71
2023/11/06 03:35:47;;;;;;;11.73;6.80;;;9.30;99.90;;;;;;5010483;28;20125;-72
2023/11/06 03:38:13;;;;;;;13.90;6.95;;;9.30;99.90;;;;;;5011502;28;20049;-72
2023/11/06 03:40:39;;;;;;;13.55;6.53;;;9.30;99.90;;;;;;5010164;28;20038;-71
2023/11/06 03:43:05;;;;;;;13.40;6.70;;;9.20;99.90;;;;;;5007225;28;20450;-71
2023/11/06 03:45:31;;;;;;;10.77;6.20;;;9.30;99.90;;;;;;4992718;28;20053;-72
2023/11/06 03:47:57;;;;;;;15.32;7.07;;;9.30;99.90;;;;;;5010455;28;20515;-71
2023/11/06 03:50:22;;;;;;;14.18;7.07;;;9.30;99.90;;;;;;5011386;28;20111;-72
2023/11/06 03:52:48;;;;;;;13.32;6.80;;;9.30;99.90;;;;;;5011327;28;20037;-73
2023/11/06 03:55:14;;;;;;;10.38;6.32;;;9.30;99.90;;;;;;5011233;28;20081;-71
2023/11/06 03:57:39;;;;;;;13.32;7.20;;;9.30;99.90;;;;;;5005905;28;20132;-71
2023/11/06 04:00:08;;;;;;;13.85;7.63;;;9.30;99.90;;;;;;5007263;28;20066;-71
2023/11/06 04:02:34;;;;;;;13.27;7.47;;;9.30;99.90;;;;;;4993929;28;20510;-72
2023/11/06 04:04:59;;;;;;;15.70;7.63;;;9.40;99.90;;;;;;5008576;28;20045;-71
2023/11/06 04:07:25;;;;;;;13.52;7.70;;;9.30;99.90;;;;;;4992982;28;20120;-72
2023/11/06 04:09:50;;;;;;;14.68;7.82;;;9.40;99.90;;;;;;4994969;28;20068;-72
2023/11/06 04:12:16;;;;;;;18.88;7.97;;;9.40;99.90;;;;;;5014805;28;20097;-71
2023/11/06 04:14:41;;;;;;;17.30;8.73;;;9.40;99.90;;;;;;4997790;28;20033;-71
2023/11/06 04:17:08;;;;;;;17.15;9.23;;;9.40;99.90;;;;;;5009227;28;20038;-71
2023/11/06 04:19:33;;;;;;;18.23;8.98;;;9.40;99.90;;;;;;4996298;28;20033;-72
2023/11/06 04:21:59;;;;;;;16.25;9.18;;;9.40;99.90;;;;;;5010146;28;20473;-72
2023/11/06 04:24:24;;;;;;;18.70;9.13;;;9.50;99.90;;;;;;5013980;28;20128;-72
2023/11/06 04:26:50;;;;;;;20.10;9.68;;;9.40;99.90;;;;;;4994497;28;20046;-71
2023/11/06 04:29:15;;;;;;;18.40;9.25;;;9.50;99.90;;;;;;4996899;28;20045;-71
2023/11/06 04:31:41;;;;;;;14.82;9.80;;;9.40;99.90;;;;;;5014733;28;20067;-72
2023/11/06 04:34:07;;;;;;;16.50;9.40;;;9.50;99.90;;;;;;5014630;28;20057;-72
2023/11/06 04:36:33;;;;;;;16.20;9.32;;;9.50;99.90;;;;;;4996774;28;20065;-71
2023/11/06 04:38:58;;;;;;;19.67;9.60;;;9.50;99.90;;;;;;5009644;28;20033;-71
2023/11/06 04:41:24;;;;;;;16.50;9.77;;;9.50;99.90;;;;;;4997009;28;20157;-71
2023/11/06 04:43:49;;;;;;;16.25;9.25;;;9.50;99.90;;;;;;4996443;28;20034;-73
2023/11/06 04:46:15;;;;;;;16.63;9.70;;;9.50;99.90;;;;;;4994489;28;20069;-71
2023/11/06 04:48:41;;;;;;;15.18;9.73;;;9.50;99.90;;;;;;4996308;28;20042;-71
2023/11/06 04:51:07;;;;;;;20.17;9.77;;;9.50;99.90;;;;;;5014480;28;20041;-72
2023/11/06 04:53:33;;;;;;;19.10;9.93;;;9.50;99.90;;;;;;4996354;28;20044;-71
2023/11/06 04:55:59;;;;;;;20.58;10.20;;;9.50;99.90;;;;;;5014392;28;20041;-71
2023/11/06 04:58:27;;;;;;;20.27;9.88;;;9.50;99.90;;;;;;5013537;28;20046;-71
2023/11/06 05:00:53;;;;;;;21.08;9.52;;;9.50;99.90;;;;;;4979971;28;20038;-71
2023/11/06 05:03:18;;;;;;;17.95;10.25;;;9.50;99.90;;;;;;4996522;28;20053;-71
2023/11/06 05:05:44;;;;;;;20.48;10.60;;;9.50;99.90;;;;;;5013430;28;20422;-72
2023/11/06 05:08:12;;;;;;;18.50;10.27;;;9.50;99.90;;;;;;5012255;28;20534;-71
2023/11/06 05:10:38;;;;;;;21.55;10.07;;;9.50;99.90;;;;;;4988949;28;20383;-72
2023/11/06 05:13:03;;;;;;;19.05;10.27;;;9.50;99.90;;;;;;4996126;28;20053;-71
2023/11/06 05:15:29;;;;;;;20.98;10.48;;;9.50;99.90;;;;;;5013675;28;20514;-71
2023/11/06 05:17:54;;;;;;;18.98;10.45;;;9.50;99.90;;;;;;5012232;28;20505;-72
2023/11/06 05:20:20;;;;;;;19.13;10.60;;;9.50;99.90;;;;;;5011701;28;20411;-73
2023/11/06 05:22:47;;;;;;;17.33;10.60;;;9.50;99.90;;;;;;5012670;28;20510;-71
2023/11/06 05:25:13;;;;;;;17.15;9.90;;;9.50;99.90;;;;;;5013527;28;20041;-72
2023/11/06 05:27:38;;;;;;;17.05;10.25;;;9.50;99.90;;;;;;4995856;28;20038;-71
2023/11/06 05:30:05;;;;;;;18.42;9.93;;;9.50;99.90;;;;;;5006920;28;20669;-72
2023/11/06 05:32:31;;;;;;;17.48;9.23;;;9.50;99.90;;;;;;5009186;28;20078;-71
2023/11/06 05:34:57;;;;;;;22.23;10.63;;;9.50;99.90;;;;;;5006108;28;20492;-73
2023/11/06 05:37:26;;;;;;;23.80;10.43;;;9.50;99.90;;;;;;5018181;28;20069;-72
2023/11/06 05:39:53;;;;;;;21.50;10.07;;;9.50;99.90;;;;;;5010634;28;20034;-72
2023/11/06 05:42:19;;;;;;;19.17;10.52;;;9.50;99.90;;;;;;5012919;28;20495;-73
2023/11/06 05:44:44;;;;;;;19.55;10.60;;;9.40;99.90;;;;;;5006774;28;20048;-72
2023/11/06 05:47:10;;;;;;;18.52;10.55;;;9.50;99.90;;;;;;5016398;28;20046;-73
2023/11/06 05:49:42;;;;;;;21.33;11.07;;;9.50;99.90;;;;;;5010492;28;20034;-73
2023/11/06 05:52:08;;;;;;;22.15;11.23;;;9.50;99.90;;;;;;4995595;28;20076;-73
2023/11/06 05:54:34;;;;;;;22.73;11.13;;;9.50;99.90;;;;;;4991675;28;20121;-71
2023/11/06 05:57:00;;;;;;;22.15;11.15;;;9.50;99.90;;;;;;4994931;28;20117;-72
2023/11/06 05:59:25;;;;;;;19.00;10.50;;;9.50;99.90;;;;;;4994582;28;20050;-71
2023/11/06 06:01:51;;;;;;;20.52;11.20;;;9.50;99.90;;;;;;5001615;28;20123;-71
2023/11/06 06:04:17;;;;;;;21.17;11.50;;;9.50;99.90;;;;;;5006427;28;20109;-71
2023/11/06 06:06:42;;;;;;;22.38;11.98;;;9.50;99.90;;;;;;4994052;28;20080;-71
2023/11/06 06:09:08;;;;;;;22.20;11.25;;;9.50;99.90;;;;;;5014898;28;20041;-71
2023/11/06 06:11:37;;;;;;;22.15;11.13;;;9.50;99.90;;;;;;5005558;28;20470;-72
2023/11/06 06:14:04;;;;;;;21.25;11.35;;;9.50;99.90;;;;;;5002000;28;20050;-71
2023/11/06 06:16:30;;;;;;;20.65;11.15;;;9.50;99.90;;;;;;4998110;28;20129;-72
2023/11/06 06:18:56;;;;;;;22.73;11.88;;;9.50;99.90;;;;;;4988322;28;20494;-71
2023/11/06 06:21:22;;;;;;;21.40;9.88;;;9.50;99.90;;;;;;5008098;28;20121;-74
2023/11/06 06:23:47;;;;;;;18.08;9.82;;;9.50;99.90;;;;;;5013620;28;20387;-72
2023/11/06 06:26:13;;;;;;;18.52;10.10;;;9.40;99.90;;;;;;4986449;28;20063;-73
2023/11/06 06:28:38;;;;;;;14.88;8.90;;;9.40;99.90;;;;;;4999942;28;20037;-73
2023/11/06 06:31:04;;;;;;;15.07;8.55;;;9.40;99.90;;;;;;5008127;28;20044;-75
2023/11/06 06:33:30;;;;;;;13.45;9.13;;;9.40;99.90;;;;;;4985249;28;20494;-73
2023/11/06 06:35:55;;;;;;;14.20;8.20;;;9.40;99.90;;;;;;5011088;28;20052;-73
2023/11/06 06:38:21;;;;;;;15.07;7.80;;;9.40;99.90;;;;;;5007217;28;20043;-72
2023/11/06 06:40:50;;;;;;;14.23;7.35;;;9.40;99.90;;;;;;5010523;28;20721;-73
2023/11/06 06:43:16;;;;;;;14.88;7.72;;;9.40;99.90;;;;;;5012351;28;20037;-72
2023/11/06 06:45:42;;;;;;;15.40;7.28;;;9.40;99.90;;;;;;4982516;28;20042;-72
2023/11/06 06:48:08;;;;;;;15.65;6.47;;;9.40;99.90;;;;;;4991064;28;20509;-72
2023/11/06 06:50:33;;;;;;;14.02;7.20;;;9.40;99.90;;;;;;5010628;28;20092;-73
2023/11/06 06:52:59;;;;;;;14.00;6.43;;;9.40;99.90;;;;;;5011124;28;20049;-74
2023/11/06 06:55:25;;;;;;;13.45;6.30;;;9.40;99.90;;;;;;4985072;28;20100;-72
2023/11/06 06:57:50;;;;;;;15.93;5.15;;;9.40;99.90;;;;;;5025072;28;20497;-72
2023/11/06 07:00:17;;;;;;;10.00;5.35;;;9.30;99.90;;;;;;5008887;28;20104;-72
2023/11/06 07:02:42;;;;;;;13.00;4.55;;;9.30;99.90;;;;;;4993869;28;20418;-72
2023/11/06 07:05:09;;;;;;;10.13;3.95;;;9.40;99.90;;;;;;4989339;28;20038;-72
2023/11/06 07:07:35;;;;;;;10.68;3.38;;;9.30;99.90;;;;;;5011385;28;20049;-72
2023/11/06 07:10:00;;;;;;;11.27;3.47;;;9.30;99.90;;;;;;4994579;28;20049;-72
2023/11/06 07:12:26;;;;;;;7.50;2.67;;;9.30;99.90;;;;;;5011886;28;20045;-72
2023/11/06 07:14:51;;;;;;;7.47;2.35;;;9.30;99.90;;;;;;4994142;28;20037;-73
2023/11/06 07:17:18;;;;;;;5.53;2.25;;;9.30;99.90;;;;;;5011956;28;20030;-72
2023/11/06 07:19:46;;;;;;;9.27;2.80;;;9.30;99.90;;;;;;4967383;28;20074;-72
2023/11/06 07:22:12;;;;;;;9.23;2.63;;;9.40;99.90;;;;;;4990520;28;20088;-73
2023/11/06 07:24:37;;;;;;;8.65;2.53;;;9.40;99.90;;;;;;5011727;28;20034;-72
2023/11/06 07:27:03;;;;;;;14.13;2.33;;;9.40;99.90;;;;;;4994305;28;20124;-72
2023/11/06 07:29:29;;;;;;;4.90;2.10;;;9.30;99.90;;;;;;5011820;28;20566;-72
2023/11/06 07:31:55;;;;;;;8.48;2.33;;;9.40;99.90;;;;;;4994184;28;20169;-73
2023/11/06 07:34:21;;;;;;;5.75;2.33;;;9.40;99.90;;;;;;5011742;28;20045;-72
2023/11/06 07:36:46;;;;;;;8.27;2.15;;;9.30;99.90;;;;;;4992542;28;20394;-72
2023/11/06 07:39:14;;;;;;;7.28;2.70;;;9.30;99.90;;;;;;5008288;28;20030;-73
2023/11/06 07:41:40;;;;;;;11.63;2.53;;;9.40;99.90;;;;;;4991768;28;20072;-72
2023/11/06 07:44:06;;;;;;;9.50;2.83;;;9.40;99.90;;;;;;5012352;28;20611;-72
2023/11/06 07:46:32;;;;;;;10.55;3.25;;;9.40;99.90;;;;;;5017677;28;20065;-72
2023/11/06 07:48:57;;;;;;;8.63;3.20;;;9.30;99.90;;;;;;5018223;28;20034;-72
2023/11/06 07:51:23;;;;;;;11.45;3.05;;;9.40;99.90;;;;;;5000607;28;20124;-73
2023/11/06 07:53:48;;;;;;;9.35;3.22;;;9.40;99.90;;;;;;5015407;28;20040;-73
2023/11/06 07:56:17;;;;;;;11.30;3.40;;;9.40;99.90;;;;;;5017974;28;20483;-72
2023/11/06 07:58:43;;;;;;;11.85;3.40;;;9.50;99.90;;;;;;5017910;28;20034;-73
2023/11/06 08:01:08;;;;;;;11.65;3.33;;;9.50;99.90;;;;;;5017922;28;20534;-72
2023/11/06 08:03:34;;;;;;;12.77;4.35;;;9.50;99.90;;;;;;5000251;28;20446;-73
2023/11/06 08:05:59;;;;;;;10.88;3.83;;;9.50;99.90;;;;;;5017858;28;20033;-73
2023/11/06 08:08:25;;;;;;;8.93;3.92;;;9.50;99.90;;;;;;5002886;28;20501;-74
2023/11/06 08:10:50;;;;;;;10.32;4.38;;;9.60;99.90;;;;;;5026720;28;20096;-73
2023/11/06 08:13:19;;;;;;;8.85;3.88;;;9.60;99.90;;;;;;5013602;28;20098;-73
2023/11/06 08:15:45;;;;;;;12.75;4.40;;;9.70;99.90;;;;;;4998597;28;20113;-73
2023/11/06 08:18:10;;;;;;;8.98;4.05;;;9.70;99.90;;;;;;4999821;28;20168;-73
2023/11/06 08:20:36;;;;;;;11.10;4.57;;;9.70;99.90;;;;;;4999843;28;20070;-73
2023/11/06 08:23:02;;;;;;;13.63;4.25;;;9.70;99.90;;;;;;5016845;28;20037;-73
2023/11/06 08:25:28;;;;;;;10.93;4.10;;;9.80;99.90;;;;;;5017584;28;20363;-73
2023/11/06 08:27:54;;;;;;;14.02;4.53;;;9.80;99.90;;;;;;5002412;28;20034;-74
2023/11/06 08:30:20;;;;;;;9.80;4.35;;;9.80;99.90;;;;;;5032645;28;20498;-73
2023/11/06 08:32:45;;;;;;;12.23;4.30;;;9.80;99.90;;;;;;5010732;28;20052;-73
2023/11/06 08:35:11;;;;;;;9.65;3.70;;;9.80;99.90;;;;;;4999992;28;20364;-75
2023/11/06 08:37:36;;;;;;;10.90;4.15;;;9.90;99.90;;;;;;5015853;28;20073;-73
2023/11/06 08:40:03;;;;;;;9.88;3.78;;;10.00;99.90;;;;;;5017676;28;20030;-74
2023/11/06 08:42:29;;;;;;;9.15;3.67;;;10.00;99.90;;;;;;5017530;28;20042;-74
2023/11/06 08:44:55;;;;;;;11.43;3.72;;;10.00;99.90;;;;;;5017402;28;20037;-74
2023/11/06 08:47:20;;;;;;;10.88;3.42;;;10.10;99.90;;;;;;5017245;28;20116;-74
2023/11/06 08:49:46;;;;;;;9.63;3.53;;;10.10;99.90;;;;;;5017447;28;20038;-73
2023/11/06 08:52:12;;;;;;;11.75;3.55;;;10.10;99.90;;;;;;5017450;28;20124;-74
2023/11/06 08:54:40;;;;;;;13.60;3.20;;;10.10;99.90;;;;;;5005578;28;20045;-73
2023/11/06 08:57:07;;;;;;;10.48;3.25;;;10.10;99.90;;;;;;5003623;28;20157;-73
2023/11/06 08:59:33;;;;;;;12.95;3.35;;;10.10;99.90;;;;;;5013028;28;20125;-73
2023/11/06 09:01:58;;;;;;;12.65;3.40;;;10.10;99.90;;;;;;5020776;28;20446;-73
2023/11/06 09:04:24;;;;;;;11.27;2.72;;;10.10;99.90;;;;;;5028079;28;20052;-73
2023/11/06 09:06:49;;;;;;;10.88;2.80;;;10.20;99.90;;;;;;5013454;28;20033;-73
2023/11/06 09:09:15;;;;;;;7.07;2.65;;;10.20;99.90;;;;;;5014452;28;20038;-73
2023/11/06 09:11:42;;;;;;;8.73;2.45;;;10.20;99.90;;;;;;5006234;28;20049;-74
2023/11/06 09:14:08;;;;;;;10.07;2.75;;;10.30;99.90;;;;;;5009664;28;20372;-73
2023/11/06 09:16:35;;;;;;;11.38;2.38;;;10.30;99.90;;;;;;5013116;28;20128;-74
2023/11/06 09:19:04;;;;;;;13.38;2.88;;;10.40;99.90;;;;;;5014352;28;20033;-74
2023/11/06 09:21:30;;;;;;;11.52;2.90;;;10.40;99.90;;;;;;4995404;28;20046;-74
2023/11/06 09:23:55;;;;;;;10.88;2.25;;;10.50;99.90;;;;;;5013003;28;20042;-74
2023/11/06 09:26:21;;;;;;;5.93;2.00;;;10.50;99.90;;;;;;5007041;28;20041;-74
2023/11/06 09:28:48;;;;;;;11.52;2.30;;;10.50;99.90;;;;;;5016987;28;20041;-73
2023/11/06 09:31:17;;;;;;;9.32;2.03;;;10.50;99.90;;;;;;4998540;28;20057;-73
2023/11/06 09:33:42;;;;;;;9.25;2.22;;;10.50;99.90;;;;;;5008307;28;20464;-73
2023/11/06 09:36:08;;;;;;;10.75;2.50;;;10.50;99.90;;;;;;5020616;28;20076;-74
2023/11/06 09:38:35;;;;;;;8.77;2.30;;;10.60;99.90;;;;;;5018390;28;20087;-73
2023/11/06 09:41:03;;;;;;;8.52;2.30;;;10.60;99.90;;;;;;5009416;28;20046;-73
2023/11/06 09:43:28;;;;;;;9.32;1.85;;;10.70;99.90;;;;;;4989729;28;20380;-74
2023/11/06 09:45:56;;;;;;;8.73;2.10;;;10.70;99.90;;;;;;5014241;28;20049;-73
2023/11/06 09:48:28;;;;;;;11.18;2.83;;;10.80;99.90;;;;;;5012513;28;20046;-73
2023/11/06 09:50:56;;;;;;;8.07;2.15;;;10.80;99.90;;;;;;5011029;28;20186;-73
2023/11/06 09:53:23;;;;;;;8.18;2.22;;;10.90;99.90;;;;;;5012042;28;20102;-73
2023/11/06 09:55:49;;;;;;;7.13;1.80;;;10.90;99.90;;;;;;4995565;28;20117;-73
2023/11/06 09:58:16;;;;;;;7.88;2.53;;;11.00;99.90;;;;;;5012719;28;20084;-73
2023/11/06 10:00:43;;;;;;;10.15;1.90;;;11.00;99.90;;;;;;4994227;28;20041;-73
2023/11/06 10:03:08;;;;;;;6.65;1.88;;;11.00;99.90;;;;;;5017279;28;20375;-73
2023/11/06 10:05:34;;;;;;;5.43;1.70;;;11.00;99.90;;;;;;5003051;28;20031;-73
2023/11/06 10:08:00;;;;;;;6.43;1.88;;;11.00;99.90;;;;;;5024280;28;20071;-73
2023/11/06 10:10:28;;;;;;;5.68;1.70;;;11.00;99.90;;;;;;5015020;28;20049;-73
2023/11/06 10:13:05;;;;;;;7.25;1.67;;;11.00;99.90;;;;;;5009340;28;20128;-73
2023/11/06 10:15:35;;;;;;;10.27;2.15;;;11.00;99.90;;;;;;5012747;28;20046;-73
2023/11/06 10:18:18;;;;;;;7.80;2.08;;;11.00;99.90;;;;;;5001627;28;20043;-74
2023/11/06 10:20:45;;;;;;;8.90;2.40;;;11.00;99.90;;;;;;5024082;28;20121;-72
2023/11/06 10:23:11;;;;;;;10.55;2.17;;;11.00;99.90;;;;;;5004241;28;20038;-72
2023/11/06 10:25:37;;;;;;;8.82;2.00;;;11.00;99.90;;;;;;5000620;28;20033;-72
2023/11/06 10:28:16;;;;;;;15.77;2.30;;;11.00;99.90;;;;;;5001207;28;20091;-73
2023/11/06 10:31:00;;;;;;;12.75;2.80;;;10.90;99.90;;;;;;4999058;28;20045;-74
2023/11/06 10:33:29;;;;;;;8.20;2.53;;;10.90;99.90;;;;;;5019053;28;20574;-72
2023/11/06 10:35:57;;;;;;;6.53;2.25;;;11.00;99.90;;;;;;5021149;28;20483;-73
2023/11/06 10:38:29;;;;;;;10.13;2.95;;;11.00;99.90;;;;;;4998969;28;20060;-72
2023/11/06 10:40:55;;;;;;;;;;;11.00;99.90;;;;;;5028290;28;20704;-72
2023/11/06 10:43:21;;;;;;;9.57;2.42;;;11.10;99.90;;;;;;4995173;28;19924;-72
2023/11/06 10:45:48;;;;;;;15.30;2.50;;;11.10;99.90;;;;;;5023906;28;20037;-72
2023/11/06 10:48:18;;;;;;;10.07;2.30;;;11.20;99.90;;;;;;5010537;28;20129;-74
2023/11/06 10:50:46;;;;;;;8.98;2.47;;;11.20;99.90;;;;;;4991958;28;20052;-74
2023/11/06 10:53:12;;;;;;;9.45;2.38;;;11.20;99.90;;;;;;4985112;28;20037;-74
2023/11/06 10:55:39;;;;;;;12.80;3.05;;;11.20;99.90;;;;;;5022931;28;20033;-74
2023/11/06 10:58:08;;;;;;;13.55;3.20;;;11.20;99.90;;;;;;5027736;28;20041;-74
2023/11/06 11:00:34;;;;;;;13.60;3.25;;;11.20;99.90;;;;;;5023354;28;20049;-74
2023/11/06 11:03:01;;;;;;;11.02;3.03;;;11.20;99.90;;;;;;5016662;28;20042;-76
2023/11/06 11:05:30;;;;;;;9.18;3.10;;;11.20;99.90;;;;;;5004626;28;20045;-76
2023/11/06 11:08:00;;;;;;;8.02;2.20;;;11.20;99.90;;;;;;4999414;28;20088;-78
2023/11/06 11:10:27;;;;;;;9.80;2.53;;;11.40;99.90;;;;;;5002616;28;20532;-76
2023/11/06 11:12:56;;;;;;;9.88;2.67;;;11.30;99.90;;;;;;4983360;28;20042;-76
2023/11/06 11:15:26;;;;;;;10.15;2.33;;;11.30;99.90;;;;;;4984302;28;20042;-77
2023/11/06 11:18:04;;;;;;;9.20;2.10;;;11.60;99.90;;;;;;5005616;28;20034;-77
2023/11/06 11:20:56;;;;;;;8.23;2.10;;;11.30;99.90;;;;;;4977695;28;20041;-76
2023/11/06 11:23:39;;;;;;;12.45;2.85;;;11.30;99.90;;;;;;5002126;28;20062;-78
2023/11/06 11:26:06;;;;;;;;;;;11.30;99.90;;;;;;4975761;28;20502;-78
2023/11/06 11:28:55;;;;;;;10.73;2.40;;;11.30;99.90;;;;;;4990004;28;19917;-77
2023/11/06 11:31:39;;;;;;;8.45;2.53;;;11.80;99.90;;;;;;5000116;28;20037;-77
2023/11/06 11:34:06;;;;;;;8.32;2.75;;;12.20;99.90;;;;;;4995911;28;20076;-78
2023/11/06 11:36:35;;;;;;;10.40;2.50;;;10.90;99.90;;;;;;5003311;28;20395;-78
2023/11/06 11:39:14;;;;;;;7.78;2.35;;;11.30;99.90;;;;;;4984085;28;20041;-78
2023/11/06 11:42:03;;;;;;;11.60;2.20;;;11.30;99.90;;;;;;4986405;28;20068;-77
2023/11/06 11:44:31;;;;;;;9.30;2.40;;;11.30;99.90;;;;;;4972617;28;20049;-78
2023/11/06 11:47:00;;;;;;;9.55;2.25;;;11.30;99.90;;;;;;5008018;28;20491;-77
2023/11/06 11:49:46;;;;;;;7.65;2.40;;;11.40;99.90;;;;;;4997129;28;20506;-77
2023/11/06 11:52:14;;;;;;;8.80;2.25;;;11.20;99.90;;;;;;5000133;28;20061;-77
2023/11/06 11:54:40;;;;;;;5.15;1.90;;;12.10;99.90;;;;;;4985652;28;20046;-77
2023/11/06 11:57:09;;;;;;;7.30;2.75;;;11.20;99.90;;;;;;4993341;28;20042;-77
2023/11/06 11:59:44;;;;;;;9.18;2.10;;;11.30;99.90;;;;;;4993125;28;20144;-78
2023/11/06 12:02:36;;;;;;;5.65;2.03;;;11.80;99.90;;;;;;4975033;28;20046;-78
2023/11/06 12:05:15;;;;;;;9.85;2.38;;;11.20;99.90;;;;;;5005485;28;20103;-78
2023/11/06 12:07:42;;;;;;;13.60;2.78;;;12.10;99.90;;;;;;5005375;28;20549;-78
2023/11/06 12:10:09;;;;;;;11.98;3.22;;;11.70;99.90;;;;;;4988341;28;20068;-77
2023/11/06 12:12:35;;;;;;;11.95;3.30;;;11.30;99.90;;;;;;4983322;28;20548;-78
2023/11/06 12:15:02;;;;;;;11.43;3.00;;;11.60;99.90;;;;;;5006451;28;20033;-78
2023/11/06 12:17:35;;;;;;;13.25;3.40;;;12.20;99.90;;;;;;4991959;28;20041;-78
2023/11/06 12:20:08;;;;;;;11.38;3.70;;;11.30;99.90;;;;;;4981002;28;20041;-78
2023/11/06 12:22:46;;;;;;;10.57;2.80;;;11.30;99.90;;;;;;4987771;28;20049;-78
2023/11/06 12:25:12;;;;;;;8.60;2.45;;;11.10;99.90;;;;;;4985505;28;20125;-78
2023/11/06 12:32:42;;;;;;;9.07;2.45;;;11.50;99.90;;;;;;5005812;28;20050;-78
2023/11/06 12:35:14;;;;;;;6.35;1.80;;;12.00;99.90;;;;;;4972038;28;20057;-78
2023/11/06 12:37:59;;;;;;;7.28;2.00;;;11.60;99.90;;;;;;4989706;28;20108;-76
2023/11/06 12:40:27;;;;;;;11.38;2.75;;;11.60;99.90;;;;;;4974018;28;20044;-78
2023/11/06 12:42:57;;;;;;;6.10;2.05;;;11.70;99.90;;;;;;4955840;28;20074;-78
2023/11/06 12:45:27;;;;;;;8.95;2.25;;;12.50;99.90;;;;;;4974365;28;20517;-78
2023/11/06 12:47:53;;;;;;;7.75;2.38;;;11.70;99.90;;;;;;4953220;28;20260;-78
2023/11/06 12:50:19;;;;;;;8.50;2.63;;;11.70;99.90;;;;;;4960648;28;20475;-79